Iquique, Chile
Current Conditions -  °F | °C
As of 5:00 AM on Tuesday 21 Oct 2014 (Local Time) from SCDA Reporting Station
Overcast Overcast  
Wind Chill: 61°   Ceiling: 2500
Heat Index: 61°   Visibility: 6mi
Dew Point: 54°   Wind: 5mph
Humidity: 77%   Direction: 120°ESE
Pressure: 29.97"   Gusts: NA
Location:  20.23°S, 70.14°W
Report Text: SCDA 210900Z 12004KT 9999 OVC025 16/12 Q1015
Loading
Personal Weather Stations






























Interactive Weather Map
Tropical Storm Tracking
New forecast layout! Learn more

10-Day Weather Forecast

Advertisements
Track Severe Weather on mobile